Погода Белоховона неделю

Тверская область, Россия

21 - 27 мая
  • 21мая
    Сегодня
    +6°
    +22°
    Ясно и безоблачно
    ВремяПогодаТемператураВлажностьДавлениеВетер, м/сВероятность осадков
    00:00Ясно и безоблачно+13°C82 %747 мм3.0 м/с2 %
    03:00Небольшая облачность+10°C71 %748 мм2.7 м/с2 %
    06:00Практически безоблачно+10°C77 %750 мм2.7 м/с6 %
    09:00Небольшая облачность+16°C55 %750 мм1.8 м/с1 %
    12:00Ясно и безоблачно+20°C42 %750 мм2.1 м/с2 %
    15:00Ясно и безоблачно+21°C32 %750 мм2.8 м/с2 %
    18:00Ясно и безоблачно+21°C32 %750 мм3.0 м/с2 %
    21:00Ясно и безоблачно+15°C54 %751 мм2.5 м/с2 %
  • 22мая
    Среда
    +6°
    +20°
    Ясно и безоблачно
    ВремяПогодаТемператураВлажностьДавлениеВетер, м/сВероятность осадков
    00:00Ясно и безоблачно+10°C63 %751 мм2.1 м/с2 %
    03:00Ясно и безоблачно+7°C69 %752 мм2.9 м/с2 %
    06:00Ясно и безоблачно+8°C63 %753 мм3.1 м/с2 %
    09:00Ясно и безоблачно+15°C45 %754 мм3.1 м/с2 %
    12:00Ясно и безоблачно+19°C34 %754 мм2.8 м/с2 %
    15:00Ясно и безоблачно+19°C33 %754 мм3.3 м/с2 %
    18:00Ясно и безоблачно+18°C36 %753 мм2.9 м/с2 %
    21:00Ясно и безоблачно+14°C49 %754 мм3.3 м/с2 %
  • 23мая
    Четверг
    +6°
    +20°
    Практически безоблачно
    ВремяПогодаТемператураВлажностьДавлениеВетер, м/сВероятность осадков
    00:00Ясно и безоблачно+10°C55 %755 мм2.6 м/с2 %
    03:00Ясно и безоблачно+7°C63 %756 мм2.3 м/с2 %
    06:00Ясно и безоблачно+7°C69 %757 мм2.2 м/с2 %
    09:00Ясно и безоблачно+15°C48 %758 мм1.9 м/с2 %
    12:00Небольшая облачность+19°C36 %758 мм2.0 м/с2 %
    15:00Практически безоблачно+19°C34 %758 мм1.1 м/с2 %
    18:00Ясно и безоблачно+19°C33 %757 мм0.9 м/с2 %
    21:00Практически безоблачно+15°C57 %757 мм2.3 м/с2 %
  • 24мая
    Пятница
    +9°
    +22°
    Ясно и безоблачно
    ВремяПогодаТемператураВлажностьДавлениеВетер, м/сВероятность осадков
    00:00Ясно и безоблачно+10°C59 %758 мм3.0 м/с2 %
    03:00Ясно и безоблачно+7°C68 %759 мм2.4 м/с2 %
    06:00Ясно и безоблачно+8°C70 %760 мм2.1 м/с2 %
    09:00Ясно и безоблачно+17°C44 %760 мм2.3 м/с2 %
    12:00Ясно и безоблачно+21°C36 %760 мм2.7 м/с2 %
    15:00Ясно и безоблачно+21°C35 %759 мм2.9 м/с2 %
    18:00Ясно и безоблачно+21°C35 %758 мм3.1 м/с2 %
    21:00Ясно и безоблачно+16°C53 %758 мм2.9 м/с2 %
  • 25мая
    Суббота
    +11°
    +24°
    Облачно с прояснениями
    ВремяПогодаТемператураВлажностьДавлениеВетер, м/сВероятность осадков
    00:00Ясно и безоблачно+12°C58 %758 мм3.1 м/с2 %
    03:00Ясно и безоблачно+10°C72 %758 мм2.9 м/с2 %
    06:00Ясно и безоблачно+11°C71 %758 мм3.1 м/с2 %
    09:00Ясно и безоблачно+18°C55 %758 мм3.1 м/с2 %
    12:00Небольшая облачность+22°C40 %757 мм3.8 м/с2 %
    15:00Облачно с прояснениями+23°C35 %756 мм4.2 м/с10 %
    18:00Ясно и безоблачно+23°C36 %755 мм3.8 м/с12 %
    21:00Ясно и безоблачно+19°C58 %755 мм2.6 м/с5 %
Мы используем cookies
Соглашаюсь